Time;durP1;ratioP1;P1;durP2;ratioP2;P2;SDS_P1;SDS_P2;PMS_P1;PMS_P2;Temp;Humidity;BMP_temperature;BMP_pressure;BME280_temperature;BME280_humidity;BME280_pressure;Samples;Min_cycle;Max_cycle;Signal;HPM_P1;HPM_P2
2023/12/16 00:00:09;;;;;;;2.20;1.00;;;;;;;2.37;84.58;94749.44;5062133;28;20036;-77
2023/12/16 00:02:35;;;;;;;2.83;1.13;;;;;;;2.32;84.96;94752.00;5062256;28;20363;-77
2023/12/16 00:05:00;;;;;;;2.85;1.23;;;;;;;2.31;85.02;94750.41;5062249;28;20035;-77
2023/12/16 00:07:26;;;;;;;2.05;0.90;;;;;;;2.17;85.13;94749.91;5062246;28;20047;-78
2023/12/16 00:09:51;;;;;;;3.28;1.13;;;;;;;2.13;85.39;94749.59;5061970;28;20052;-77
2023/12/16 00:12:17;;;;;;;3.38;1.35;;;;;;;2.20;85.58;94766.03;5062183;28;20040;-78
2023/12/16 00:14:42;;;;;;;2.70;1.00;;;;;;;2.19;85.07;94761.78;5063807;28;20092;-77
2023/12/16 00:17:08;;;;;;;3.58;0.80;;;;;;;2.16;84.80;94769.38;5065614;28;20087;-78
2023/12/16 00:19:33;;;;;;;1.73;0.57;;;;;;;2.05;84.64;94767.59;5065572;28;20024;-77
2023/12/16 00:21:59;;;;;;;1.17;0.43;;;;;;;2.09;85.09;94789.75;5065726;28;20088;-78
2023/12/16 00:24:25;;;;;;;6.60;1.20;;;;;;;2.12;85.65;94782.19;5065813;28;20021;-77
2023/12/16 00:26:51;;;;;;;2.25;0.85;;;;;;;2.11;85.30;94783.22;5065443;28;20096;-77
2023/12/16 00:29:16;;;;;;;1.08;0.65;;;;;;;2.07;85.19;94778.69;5064288;28;20086;-78
2023/12/16 00:31:43;;;;;;;0.65;0.50;;;;;;;2.13;85.74;94783.78;5065499;28;20024;-77
2023/12/16 00:34:08;;;;;;;1.60;0.88;;;;;;;2.14;85.71;94793.28;5065308;28;20045;-78
2023/12/16 00:36:34;;;;;;;0.73;0.50;;;;;;;2.14;85.10;94789.88;5065467;28;20028;-77
2023/12/16 00:38:59;;;;;;;1.08;0.70;;;;;;;2.05;85.35;94792.06;5065292;28;20311;-78
2023/12/16 00:41:25;;;;;;;0.45;0.40;;;;;;;1.97;86.24;94800.31;5065250;28;20099;-77
2023/12/16 00:43:50;;;;;;;1.75;0.80;;;;;;;1.97;86.19;94790.63;5065109;28;20031;-77
2023/12/16 00:46:16;;;;;;;3.47;1.17;;;;;;;1.94;86.21;94812.13;5065092;28;20095;-77
2023/12/16 00:48:42;;;;;;;1.50;0.80;;;;;;;2.03;86.29;94815.16;5065157;28;20372;-77
2023/12/16 00:51:07;;;;;;;1.88;0.70;;;;;;;1.95;85.86;94815.53;5065206;28;20087;-78
2023/12/16 00:53:33;;;;;;;1.50;0.73;;;;;;;1.94;85.58;94809.50;5065011;28;20246;-78
2023/12/16 00:55:58;;;;;;;0.80;0.50;;;;;;;1.98;85.33;94807.19;5064948;28;20051;-77
2023/12/16 00:58:24;;;;;;;2.60;1.10;;;;;;;1.98;85.40;94815.09;5064997;28;20044;-78
2023/12/16 01:00:49;;;;;;;1.75;0.95;;;;;;;1.99;85.51;94806.16;5064937;28;20078;-77
2023/12/16 01:03:15;;;;;;;1.45;0.82;;;;;;;2.04;85.45;94814.16;5063919;28;20071;-77
2023/12/16 01:05:41;;;;;;;0.50;0.40;;;;;;;1.96;84.88;94817.16;5064976;28;20204;-77
2023/12/16 01:08:06;;;;;;;1.63;0.63;;;;;;;1.85;84.73;94816.16;5064777;28;20059;-77
2023/12/16 01:10:31;;;;;;;1.30;0.70;;;;;;;1.75;85.38;94822.03;5064706;28;20036;-77
2023/12/16 01:12:57;;;;;;;1.77;0.70;;;;;;;1.77;85.82;94825.22;5064683;28;20028;-77
2023/12/16 01:15:23;;;;;;;0.82;0.50;;;;;;;1.75;86.06;94826.47;5064338;28;20200;-77
2023/12/16 01:17:48;;;;;;;1.63;0.73;;;;;;;1.76;86.53;94823.63;5064528;28;20111;-77
2023/12/16 01:20:14;;;;;;;3.00;1.00;;;;;;;1.84;86.62;94835.59;5064641;28;20067;-76
2023/12/16 01:22:39;;;;;;;2.05;0.90;;;;;;;1.92;86.54;94832.59;5064368;28;20029;-77
2023/12/16 01:25:05;;;;;;;0.52;0.40;;;;;;;1.94;86.40;94824.47;5064057;28;20056;-78
2023/12/16 01:27:31;;;;;;;0.50;0.40;;;;;;;1.85;85.71;94833.75;5064176;28;20029;-79
2023/12/16 01:29:57;;;;;;;0.65;0.47;;;;;;;1.87;85.87;94834.31;5064255;28;20029;-77
2023/12/16 01:32:23;;;;;;;1.38;0.50;;;;;;;1.91;85.97;94832.81;5064409;28;20025;-78
2023/12/16 01:34:48;;;;;;;1.05;0.70;;;;;;;1.87;86.28;94834.31;5064331;28;20053;-77
2023/12/16 01:37:14;;;;;;;0.80;0.50;;;;;;;1.92;86.34;94842.31;5064228;28;20371;-78
2023/12/16 01:39:39;;;;;;;0.50;0.35;;;;;;;1.89;86.36;94829.63;5063996;28;20036;-78
2023/12/16 01:42:05;;;;;;;1.15;0.52;;;;;;;1.94;86.34;94833.16;5064072;28;20051;-77
2023/12/16 01:44:30;;;;;;;0.60;0.40;;;;;;;1.98;85.72;94836.13;5064018;28;20218;-78
2023/12/16 01:46:56;;;;;;;0.63;0.43;;;;;;;1.99;85.75;94842.97;5064178;28;20035;-78
2023/12/16 01:49:23;;;;;;;0.70;0.50;;;;;;;1.82;85.65;94844.75;5063759;28;20197;-78
2023/12/16 01:51:50;;;;;;;0.70;0.40;;;;;;;1.88;85.91;94841.19;5063925;28;20031;-78
2023/12/16 01:54:15;;;;;;;0.30;0.30;;;;;;;1.91;85.87;94840.72;5063803;28;20023;-78
2023/12/16 01:56:41;;;;;;;0.95;0.60;;;;;;;1.90;86.09;94845.19;5063878;28;20216;-77
2023/12/16 01:59:07;;;;;;;2.58;0.63;;;;;;;1.91;86.05;94838.88;5063644;28;20262;-77
2023/12/16 02:01:33;;;;;;;0.40;0.30;;;;;;;1.97;86.11;94850.28;5063818;28;20025;-77
2023/12/16 02:03:59;;;;;;;7.15;0.80;;;;;;;1.97;86.09;94845.84;5063616;28;20185;-77
2023/12/16 02:06:26;;;;;;;1.30;0.50;;;;;;;1.89;85.96;94848.03;5063644;28;20039;-77
2023/12/16 02:08:51;;;;;;;2.45;0.55;;;;;;;1.93;86.08;94859.69;5063599;28;20032;-77
2023/12/16 02:11:17;;;;;;;0.50;0.40;;;;;;;1.97;86.43;94845.03;5063528;28;20021;-77
2023/12/16 02:13:43;;;;;;;1.05;0.63;;;;;;;2.01;86.13;94843.53;5063453;28;20051;-78
2023/12/16 02:16:12;;;;;;;1.27;0.68;;;;;;;2.09;85.68;94850.25;5062397;28;20389;-77
2023/12/16 02:18:37;;;;;;;1.10;0.60;;;;;;;2.07;85.74;94841.78;5062329;28;20096;-77
2023/12/16 02:21:04;;;;;;;0.95;0.50;;;;;;;2.07;85.00;94847.84;5063336;28;20067;-77
2023/12/16 02:23:29;;;;;;;1.00;0.45;;;;;;;2.13;84.95;94852.16;5063331;28;20797;-77
2023/12/16 02:25:55;;;;;;;0.70;0.40;;;;;;;2.13;84.36;94852.16;5063536;28;20031;-77
2023/12/16 02:28:20;;;;;;;1.02;0.60;;;;;;;2.12;84.03;94861.09;5063148;28;20120;-77
2023/12/16 02:30:46;;;;;;;1.17;0.40;;;;;;;2.15;83.74;94858.00;5063188;28;20028;-77
2023/12/16 02:33:11;;;;;;;0.75;0.40;;;;;;;2.19;83.33;94864.38;5063397;28;20020;-77
2023/12/16 02:35:37;;;;;;;0.95;0.52;;;;;;;2.18;83.20;94854.91;5063152;28;20181;-77
2023/12/16 02:38:02;;;;;;;0.95;0.60;;;;;;;2.20;82.99;94865.19;5062392;28;20050;-77
2023/12/16 02:40:28;;;;;;;1.50;0.73;;;;;;;2.21;83.04;94862.31;5062779;28;20049;-77
2023/12/16 02:42:53;;;;;;;0.90;0.40;;;;;;;2.26;82.98;94860.81;5063115;28;20325;-77
2023/12/16 02:45:19;;;;;;;0.52;0.43;;;;;;;2.26;82.67;94873.94;5063001;28;20021;-77
2023/12/16 02:47:44;;;;;;;0.50;0.40;;;;;;;2.18;82.91;94868.06;5063079;28;20044;-77
2023/12/16 02:50:10;;;;;;;4.03;0.70;;;;;;;2.21;83.07;94880.72;5062961;28;20052;-78
2023/12/16 02:52:36;;;;;;;1.48;0.50;;;;;;;2.17;83.00;94882.22;5062906;28;20101;-77
2023/12/16 02:55:04;;;;;;;0.82;0.50;;;;;;;2.27;82.78;94883.47;5062926;28;20025;-77
2023/12/16 02:57:30;;;;;;;0.85;0.52;;;;;;;2.26;82.93;94876.59;5062702;28;20250;-77
2023/12/16 02:59:55;;;;;;;0.98;0.60;;;;;;;2.33;82.55;94898.31;5062677;28;20033;-79
2023/12/16 03:02:21;;;;;;;1.08;0.40;;;;;;;2.34;82.68;94892.81;5062733;28;20029;-77
2023/12/16 03:04:46;;;;;;;1.33;0.55;;;;;;;2.36;82.87;94898.63;5095041;28;20219;-78
2023/12/16 03:07:12;;;;;;;0.55;0.43;;;;;;;2.38;82.30;94899.19;5062800;28;20020;-77
2023/12/16 03:09:38;;;;;;;3.55;0.40;;;;;;;2.38;82.65;94901.00;5062678;28;20033;-77
2023/12/16 03:12:04;;;;;;;2.90;0.38;;;;;;;2.47;82.22;94901.44;5062404;28;20021;-77
2023/12/16 03:14:29;;;;;;;0.82;0.60;;;;;;;2.47;82.17;94901.44;5062682;28;20234;-77
2023/12/16 03:16:55;;;;;;;7.35;0.80;;;;;;;2.47;82.42;94907.50;5062650;28;20466;-77
2023/12/16 03:19:20;;;;;;;4.05;0.68;;;;;;;2.48;82.82;94903.81;5062625;28;20024;-77
2023/12/16 03:21:46;;;;;;;0.95;0.50;;;;;;;2.51;82.79;94900.72;5062317;28;20032;-77
2023/12/16 03:24:12;;;;;;;0.68;0.40;;;;;;;2.52;82.94;94912.84;5062727;28;20373;-77
2023/12/16 03:26:38;;;;;;;1.23;0.88;;;;;;;2.52;82.86;94907.56;5062432;28;20033;-77
2023/12/16 03:29:03;;;;;;;2.95;1.23;;;;;;;2.53;83.01;94921.56;5062569;28;20139;-77
2023/12/16 03:31:28;;;;;;;2.47;0.75;;;;;;;2.56;82.92;94926.34;5062420;28;20035;-78
2023/12/16 03:33:54;;;;;;;1.65;0.88;;;;;;;2.53;83.04;94919.72;5062382;28;20052;-77
2023/12/16 03:36:20;;;;;;;1.90;0.80;;;;;;;2.58;82.77;94924.25;5062339;28;20028;-78
2023/12/16 03:38:45;;;;;;;3.40;0.65;;;;;;;2.55;83.02;94917.66;5062457;28;20023;-77
2023/12/16 03:41:11;;;;;;;2.58;0.68;;;;;;;2.62;82.99;94933.28;5062308;28;20024;-77
2023/12/16 03:43:37;;;;;;;2.47;0.90;;;;;;;2.58;83.04;94929.53;5062452;28;20036;-78
2023/12/16 03:46:03;;;;;;;4.15;0.70;;;;;;;2.56;83.16;94942.91;5062268;28;20212;-77
2023/12/16 03:48:29;;;;;;;0.95;0.65;;;;;;;2.52;83.12;94941.78;5063795;28;20327;-77
2023/12/16 03:50:54;;;;;;;1.83;0.73;;;;;;;2.51;83.39;94942.84;5065985;28;20051;-77
2023/12/16 03:53:20;;;;;;;2.33;0.52;;;;;;;2.51;83.67;94956.00;5066161;28;20037;-77
2023/12/16 03:55:46;;;;;;;1.35;0.73;;;;;;;2.47;83.68;94960.13;5065956;28;20204;-77
2023/12/16 03:58:11;;;;;;;1.98;0.70;;;;;;;2.49;83.40;94962.53;5065954;28;20033;-77
2023/12/16 04:00:36;;;;;;;1.88;0.60;;;;;;;2.44;82.82;94968.47;5065965;28;20032;-77
2023/12/16 04:03:02;;;;;;;1.40;0.57;;;;;;;2.40;82.50;94964.72;5066065;28;20368;-77
2023/12/16 04:05:28;;;;;;;1.00;0.60;;;;;;;2.41;82.28;94963.69;5065874;28;20319;-77
2023/12/16 04:07:54;;;;;;;3.58;0.80;;;;;;;2.41;82.01;94971.59;5065794;28;20026;-77
2023/12/16 04:10:20;;;;;;;1.25;0.70;;;;;;;2.37;82.25;94973.88;5065774;28;20028;-77
2023/12/16 04:12:45;;;;;;;0.85;0.50;;;;;;;2.37;82.09;94983.63;5065746;28;20133;-77
2023/12/16 04:15:26;;;;;;;1.38;0.80;;;;;;;2.38;82.22;94986.03;5065874;28;20029;-77
2023/12/16 04:17:52;;;;;;;1.88;0.50;;;;;;;2.37;82.47;94981.00;5065487;28;20055;-77
2023/12/16 04:20:18;;;;;;;1.80;0.90;;;;;;;2.37;82.26;94981.00;5065628;28;20299;-77
2023/12/16 04:22:43;;;;;;;3.97;0.82;;;;;;;2.37;82.57;94987.03;5065853;28;20215;-77
2023/12/16 04:25:11;;;;;;;3.20;1.33;;;;;;;2.37;82.61;94988.88;5065725;28;20021;-78
2023/12/16 04:27:38;;;;;;;3.38;0.98;;;;;;;2.38;82.98;94990.47;5065460;28;20016;-77
2023/12/16 04:30:04;;;;;;;1.98;1.00;;;;;;;2.36;83.12;94985.47;5065325;28;20027;-78
2023/12/16 04:32:30;;;;;;;1.33;0.60;;;;;;;2.36;83.36;94987.28;5065395;28;20017;-77
2023/12/16 04:34:56;;;;;;;1.38;0.60;;;;;;;2.34;83.02;94981.44;5065305;28;20032;-78
2023/12/16 04:37:22;;;;;;;1.13;0.60;;;;;;;2.32;82.87;94999.28;5065287;28;20322;-77
2023/12/16 04:39:48;;;;;;;1.45;0.85;;;;;;;2.35;82.41;94991.75;5065577;28;20093;-77
2023/12/16 04:42:13;;;;;;;1.88;0.90;;;;;;;2.30;82.57;94982.94;5065402;28;20028;-77
2023/12/16 04:44:39;;;;;;;2.47;0.90;;;;;;;2.26;82.46;95000.22;5064937;28;20078;-77
2023/12/16 04:47:04;;;;;;;2.17;0.55;;;;;;;2.25;82.17;95003.91;5065139;28;20047;-77
2023/12/16 04:49:30;;;;;;;1.65;0.63;;;;;;;2.24;82.41;95018.06;5064964;28;20021;-78
2023/12/16 04:51:55;;;;;;;1.95;0.60;;;;;;;2.25;81.85;95019.69;5064968;28;20021;-77
2023/12/16 04:54:21;;;;;;;0.90;0.45;;;;;;;2.20;81.91;95017.75;5065420;28;20024;-77
2023/12/16 04:56:47;;;;;;;1.23;0.70;;;;;;;2.23;81.88;95016.50;5065330;28;20016;-77
2023/12/16 04:59:13;;;;;;;1.67;0.70;;;;;;;2.20;81.78;95013.28;5065174;28;20253;-77
2023/12/16 05:01:39;;;;;;;2.45;0.90;;;;;;;2.21;82.05;95009.63;5064751;28;20052;-77
2023/12/16 05:04:05;;;;;;;2.63;1.20;;;;;;;2.20;82.02;95023.81;5064863;28;20016;-77
2023/12/16 05:06:30;;;;;;;5.35;2.05;;;;;;;2.23;81.81;95024.38;5064688;28;20307;-78
2023/12/16 05:08:56;;;;;;;4.30;1.42;;;;;;;2.25;81.56;95022.31;5064859;28;20092;-77
2023/12/16 05:11:22;;;;;;;2.95;1.13;;;;;;;2.20;81.87;95025.66;5064811;28;20258;-77
2023/12/16 05:13:47;;;;;;;2.53;1.02;;;;;;;2.19;82.34;95026.66;5064643;28;20029;-77
2023/12/16 05:16:19;;;;;;;1.23;0.65;;;;;;;2.16;81.89;95035.03;5064695;28;20207;-78
2023/12/16 05:18:45;;;;;;;2.15;1.00;;;;;;;2.16;81.42;95040.28;5064696;28;20013;-77
2023/12/16 05:21:12;;;;;;;0.85;0.52;;;;;;;2.15;81.93;95046.56;5064774;28;20025;-77
2023/12/16 05:23:38;;;;;;;1.77;0.90;;;;;;;2.12;82.02;95053.09;5064424;28;20027;-78
2023/12/16 05:26:03;;;;;;;4.47;1.25;;;;;;;2.13;82.39;95038.91;5064565;28;20254;-77
2023/12/16 05:28:31;;;;;;;5.05;1.90;;;;;;;2.10;82.26;95044.66;5063120;28;20100;-77
2023/12/16 05:30:56;;;;;;;4.05;1.60;;;;;;;2.09;82.36;95043.03;5062946;28;20052;-77
2023/12/16 05:33:22;;;;;;;4.85;1.80;;;;;;;2.10;82.25;95051.75;5064388;28;20242;-77
2023/12/16 05:35:47;;;;;;;6.43;2.67;;;;;;;2.10;82.44;95052.53;5064389;28;20229;-77
2023/12/16 05:38:12;;;;;;;2.88;1.60;;;;;;;2.07;82.11;95055.59;5064359;28;20303;-77
2023/12/16 05:40:38;;;;;;;1.30;0.75;;;;;;;2.01;80.57;95059.16;5064051;28;20088;-77
2023/12/16 05:43:03;;;;;;;1.38;0.60;;;;;;;2.00;80.01;95065.47;5064135;28;20028;-77
2023/12/16 05:45:29;;;;;;;1.80;0.60;;;;;;;1.95;78.76;95052.19;5063839;28;20311;-77
2023/12/16 05:47:54;;;;;;;0.63;0.50;;;;;;;1.95;78.99;95052.19;5063959;28;20040;-77
2023/12/16 05:50:20;;;;;;;3.03;1.15;;;;;;;1.96;79.25;95036.19;5062741;28;20075;-77
2023/12/16 05:52:45;;;;;;;3.53;1.35;;;;;;;2.01;79.14;95056.53;5062972;28;20060;-77
2023/12/16 05:55:11;;;;;;;1.20;0.65;;;;;;;1.95;78.20;95060.06;5062915;28;20322;-77
2023/12/16 05:57:36;;;;;;;1.65;0.85;;;;;;;1.96;78.52;95062.47;5063907;28;20052;-78
2023/12/16 06:00:02;;;;;;;1.30;0.57;;;;;;;1.95;77.72;95058.25;5063628;28;20021;-78
2023/12/16 06:02:27;;;;;;;1.25;0.50;;;;;;;1.90;77.61;95055.50;5095959;28;20330;-78
2023/12/16 06:04:53;;;;;;;1.88;0.60;;;;;;;1.83;77.63;95067.16;5063702;28;20151;-78
2023/12/16 06:07:19;;;;;;;1.30;0.60;;;;;;;1.73;77.72;95065.91;5062720;28;20031;-78
2023/12/16 06:09:45;;;;;;;2.42;0.60;;;;;;;1.75;78.39;95068.28;5063662;28;20311;-77
2023/12/16 06:12:10;;;;;;;2.08;0.80;;;;;;;1.76;78.59;95083.84;5061686;28;20063;-77
2023/12/16 06:14:36;;;;;;;1.33;0.70;;;;;;;1.78;78.30;95084.44;5063257;28;20067;-77
2023/12/16 06:17:01;;;;;;;2.55;0.77;;;;;;;1.77;78.25;95092.53;5063285;28;20027;-78
2023/12/16 06:19:27;;;;;;;1.13;0.60;;;;;;;1.73;78.59;95097.47;5063609;28;20031;-77
2023/12/16 06:21:52;;;;;;;1.50;0.70;;;;;;;1.72;78.66;95095.06;5063421;28;20028;-77
2023/12/16 06:24:18;;;;;;;1.52;0.63;;;;;;;1.70;78.22;95105.78;5063322;28;20071;-78
2023/12/16 06:26:43;;;;;;;0.75;0.45;;;;;;;1.77;78.62;95108.31;5063475;28;20047;-77
2023/12/16 06:29:08;;;;;;;1.45;0.80;;;;;;;1.82;79.39;95112.91;5063094;28;20383;-77
2023/12/16 06:31:34;;;;;;;0.82;0.40;;;;;;;1.93;79.17;95107.63;5061832;28;20043;-77
2023/12/16 06:33:59;;;;;;;1.48;0.82;;;;;;;1.85;79.00;95115.06;5063174;28;20251;-77
2023/12/16 06:36:25;;;;;;;2.15;1.52;;;;;;;1.85;79.04;95125.56;5063071;28;20291;-77
2023/12/16 06:38:50;;;;;;;1.70;0.60;;;;;;;1.75;79.53;95118.25;5063070;28;20029;-77
2023/12/16 06:41:16;;;;;;;1.42;0.60;;;;;;;1.72;79.52;95124.75;5063238;28;20032;-77
2023/12/16 06:43:41;;;;;;;1.05;0.50;;;;;;;1.72;79.96;95137.91;5063153;28;20025;-78
2023/12/16 06:46:07;;;;;;;1.63;0.68;;;;;;;1.84;80.27;95139.75;5062997;28;20031;-77
2023/12/16 06:48:32;;;;;;;1.55;0.85;;;;;;;1.82;79.97;95144.44;5062678;28;20370;-78
2023/12/16 06:50:59;;;;;;;2.45;0.95;;;;;;;1.76;79.78;95152.19;5063003;28;20112;-77
2023/12/16 06:53:25;;;;;;;3.10;0.40;;;;;;;1.78;80.21;95158.03;5062780;28;20028;-77
2023/12/16 06:55:52;;;;;;;1.60;0.55;;;;;;;1.70;79.95;95166.25;5062607;28;20047;-78
2023/12/16 06:58:21;;;;;;;0.60;0.40;;;;;;;1.64;80.22;95172.41;5062629;28;20063;-77
2023/12/16 07:00:46;;;;;;;1.35;0.75;;;;;;;1.57;80.74;95172.50;5062555;28;20195;-77
2023/12/16 07:03:12;;;;;;;1.42;0.52;;;;;;;1.61;80.74;95183.38;5062847;28;20025;-78
2023/12/16 07:05:37;;;;;;;0.55;0.43;;;;;;;1.59;81.07;95188.06;5062774;28;20013;-77
2023/12/16 07:08:03;;;;;;;0.93;0.50;;;;;;;1.49;81.19;95190.41;5061473;28;20028;-77
2023/12/16 07:10:29;;;;;;;2.38;1.20;;;;;;;1.53;81.70;95196.84;5062537;28;20032;-78
2023/12/16 07:12:54;;;;;;;2.55;0.60;;;;;;;1.52;81.58;95195.22;5062686;28;20029;-78
2023/12/16 07:15:20;;;;;;;1.52;0.45;;;;;;;1.50;81.92;95210.41;5062426;28;20088;-77
2023/12/16 07:17:45;;;;;;;1.65;0.60;;;;;;;1.51;81.68;95215.44;5062689;28;20029;-76
2023/12/16 07:20:12;;;;;;;1.60;0.73;;;;;;;1.53;81.57;95218.66;5061440;28;20100;-79
2023/12/16 07:22:37;;;;;;;2.45;1.30;;;;;;;1.55;81.72;95218.44;5062545;28;20024;-77
2023/12/16 07:25:03;;;;;;;2.88;1.20;;;;;;;1.58;81.83;95217.97;5066676;28;20066;-77
2023/12/16 07:27:29;;;;;;;3.63;1.77;;;;;;;1.67;81.39;95215.81;5066434;28;20025;-77
2023/12/16 07:29:54;;;;;;;5.60;1.70;;;;;;;1.56;81.37;95217.38;5066382;28;20204;-77
2023/12/16 07:32:20;;;;;;;2.08;1.17;;;;;;;1.57;81.50;95214.53;5067103;28;20067;-77
2023/12/16 07:34:48;;;;;;;2.78;1.15;;;;;;;1.60;81.15;95213.28;5066757;28;20083;-77
2023/12/16 07:37:14;;;;;;;2.30;1.23;;;;;;;1.67;80.81;95221.91;5066885;28;20032;-76
2023/12/16 07:39:39;;;;;;;1.58;0.80;;;;;;;1.70;80.43;95229.31;5066379;28;20334;-77
2023/12/16 07:42:05;;;;;;;1.30;0.70;;;;;;;1.73;80.57;95218.38;5066504;28;20060;-77
2023/12/16 07:44:30;;;;;;;1.50;0.73;;;;;;;1.73;80.53;95228.91;5066959;28;20091;-78
2023/12/16 07:46:56;;;;;;;1.58;0.70;;;;;;;1.76;79.75;95228.44;5066517;28;20029;-77
2023/12/16 07:49:25;;;;;;;3.80;0.80;;;;;;;1.82;79.96;95231.19;5066490;28;20100;-77
2023/12/16 07:51:54;;;;;;;1.38;0.75;;;;;;;1.84;80.16;95234.41;5066481;28;20032;-77
2023/12/16 07:54:22;;;;;;;1.92;0.70;;;;;;;1.88;80.20;95236.34;5066591;28;20266;-77
2023/12/16 07:56:48;;;;;;;1.52;0.70;;;;;;;1.84;79.48;95243.09;5066562;28;20081;-77
2023/12/16 07:59:14;;;;;;;2.10;1.00;;;;;;;1.82;79.78;95239.09;5066557;28;20059;-77
2023/12/16 08:01:39;;;;;;;1.58;0.90;;;;;;;1.83;79.80;95248.56;5066348;28;20418;-77
2023/12/16 08:04:05;;;;;;;1.77;0.90;;;;;;;1.77;79.28;95248.44;5066102;28;20040;-77
2023/12/16 08:06:30;;;;;;;1.20;0.63;;;;;;;1.84;79.61;95258.06;5066378;28;20033;-77
2023/12/16 08:08:56;;;;;;;1.13;0.65;;;;;;;1.73;79.54;95263.06;5066313;28;20039;-77
2023/12/16 08:11:21;;;;;;;1.27;0.60;;;;;;;1.65;79.40;95257.28;5066160;28;20024;-77
2023/12/16 08:13:47;;;;;;;1.58;0.77;;;;;;;1.71;79.67;95262.50;5066226;28;20028;-77
2023/12/16 08:16:12;;;;;;;1.70;0.75;;;;;;;1.73;80.01;95265.69;5066459;28;20063;-77
2023/12/16 08:18:38;;;;;;;2.33;1.00;;;;;;;1.65;79.82;95273.88;5066204;28;20036;-77
2023/12/16 08:21:04;;;;;;;1.30;0.65;;;;;;;1.57;79.85;95271.56;5064599;28;20075;-77
2023/12/16 08:23:29;;;;;;;2.28;0.93;;;;;;;1.58;79.96;95281.84;5065986;28;20025;-77
2023/12/16 08:25:55;;;;;;;3.53;1.13;;;;;;;1.61;80.44;95278.00;5065543;28;20025;-77
2023/12/16 08:28:20;;;;;;;3.17;1.00;;;;;;;1.60;80.54;95277.16;5064694;28;20029;-77
2023/12/16 08:30:48;;;;;;;5.80;1.27;;;;;;;1.64;80.98;95282.78;5065991;28;20017;-77
2023/12/16 08:33:13;;;;;;;3.40;1.00;;;;;;;1.57;80.41;95284.72;5065776;28;20028;-77
2023/12/16 08:35:42;;;;;;;2.17;1.00;;;;;;;1.56;80.41;95285.72;5064494;28;20092;-77
2023/12/16 08:38:07;;;;;;;3.70;0.80;;;;;;;1.52;80.71;95285.34;5065871;28;20042;-77
2023/12/16 08:40:33;;;;;;;1.30;0.73;;;;;;;1.48;80.27;95280.75;5065877;28;20330;-77
2023/12/16 08:42:58;;;;;;;1.63;0.70;;;;;;;1.49;80.58;95279.75;5066018;28;20307;-76
2023/12/16 08:45:26;;;;;;;2.53;0.90;;;;;;;1.49;80.67;95271.88;5064610;28;20318;-77
2023/12/16 08:47:51;;;;;;;4.15;1.42;;;;;;;1.44;80.19;95267.25;5064352;28;20311;-77
2023/12/16 08:50:17;;;;;;;1.95;1.00;;;;;;;1.43;80.66;95275.38;5065621;28;20096;-77
2023/12/16 08:52:42;;;;;;;2.28;1.17;;;;;;;1.49;80.80;95274.50;5064077;28;20029;-77
2023/12/16 08:55:08;;;;;;;2.88;1.15;;;;;;;1.57;81.33;95287.34;5065441;28;20040;-77
2023/12/16 08:57:33;;;;;;;1.60;0.60;;;;;;;1.59;80.32;95282.66;5064866;28;20055;-77
2023/12/16 08:59:59;;;;;;;2.60;1.35;;;;;;;1.62;80.37;95292.72;5064749;28;20075;-77
2023/12/16 09:02:24;;;;;;;9.02;2.67;;;;;;;1.64;80.38;95277.53;5064898;28;20097;-77
2023/12/16 09:04:50;;;;;;;4.30;1.83;;;;;;;1.58;79.23;95278.41;5064949;28;20330;-77
2023/12/16 09:07:17;;;;;;;1.95;0.75;;;;;;;1.62;79.50;95265.63;5064938;28;20096;-77
2023/12/16 09:09:44;;;;;;;2.75;1.25;;;;;;;1.51;79.60;95272.47;5064819;28;20021;-77
2023/12/16 09:12:10;;;;;;;2.80;0.98;;;;;;;1.57;79.85;95268.94;5064724;28;20024;-77
2023/12/16 09:14:35;;;;;;;1.35;1.00;;;;;;;1.73;79.42;95273.59;5064910;28;20024;-77
2023/12/16 09:17:00;;;;;;;1.58;0.90;;;;;;;1.79;78.31;95264.81;5064967;28;20222;-77
2023/12/16 09:19:26;;;;;;;2.70;1.25;;;;;;;1.89;78.29;95268.72;5064830;28;20017;-78
2023/12/16 09:21:52;;;;;;;2.03;1.27;;;;;;;1.99;77.99;95261.06;5064988;28;20020;-78
2023/12/16 09:24:17;;;;;;;2.03;0.98;;;;;;;2.02;76.72;95258.00;5064795;28;20262;-77
2023/12/16 09:26:43;;;;;;;3.10;1.42;;;;;;;2.02;76.83;95258.00;5064963;28;20258;-78
2023/12/16 09:29:11;;;;;;;3.17;1.50;;;;;;;2.13;77.92;95249.34;5064245;28;20235;-77
2023/12/16 09:31:36;;;;;;;4.97;1.80;;;;;;;2.24;76.96;95245.13;5063446;28;20025;-78
2023/12/16 09:34:01;;;;;;;2.65;1.40;;;;;;;2.26;76.19;95247.53;5064578;28;20032;-78
2023/12/16 09:36:27;;;;;;;1.77;0.90;;;;;;;2.40;76.70;95238.38;5064643;28;20052;-78
2023/12/16 09:38:54;;;;;;;2.22;1.10;;;;;;;2.37;73.84;95244.13;5064409;28;20036;-77
2023/12/16 09:41:24;;;;;;;2.58;1.10;;;;;;;2.47;74.78;95248.81;5064716;28;20025;-77
2023/12/16 09:43:54;;;;;;;5.28;1.77;;;;;;;2.66;75.22;95242.41;5064432;28;20047;-77
2023/12/16 09:46:21;;;;;;;3.17;1.23;;;;;;;2.69;73.63;95236.69;5064492;28;20021;-78
2023/12/16 09:48:46;;;;;;;4.32;1.25;;;;;;;2.86;73.39;95247.31;5063941;28;20071;-77
2023/12/16 09:51:13;;;;;;;1.27;0.82;;;;;;;2.86;72.81;95247.31;5064436;28;20092;-78
2023/12/16 09:53:39;;;;;;;1.67;0.80;;;;;;;2.82;72.58;95248.81;5064379;28;20021;-78
2023/12/16 09:56:05;;;;;;;1.98;0.93;;;;;;;2.88;72.77;95255.81;5064294;28;20223;-78
2023/12/16 09:58:33;;;;;;;3.67;0.90;;;;;;;2.98;73.11;95242.84;5063998;28;20100;-78
2023/12/16 10:00:59;;;;;;;1.35;0.65;;;;;;;3.00;71.44;95256.59;5063963;28;20020;-77
2023/12/16 10:03:24;;;;;;;1.42;0.73;;;;;;;2.99;71.56;95244.47;5063759;28;20080;-78
2023/12/16 10:05:51;;;;;;;1.88;0.80;;;;;;;2.92;71.55;95240.34;5063984;28;20036;-77
2023/12/16 10:08:16;;;;;;;2.75;0.80;;;;;;;2.86;71.17;95236.78;5064102;28;20051;-77
2023/12/16 10:10:42;;;;;;;1.70;0.75;;;;;;;2.77;70.63;95238.97;5064216;28;20029;-78
2023/12/16 10:13:08;;;;;;;2.10;1.08;;;;;;;2.73;71.89;95239.69;5063914;28;20013;-78
2023/12/16 10:15:34;;;;;;;3.13;0.70;;;;;;;2.68;71.38;95239.56;5064010;28;20028;-78
2023/12/16 10:18:03;;;;;;;2.15;1.10;;;;;;;2.59;70.93;95236.47;5063828;28;20048;-78
2023/12/16 10:20:30;;;;;;;2.28;0.90;;;;;;;2.53;71.31;95232.91;5063913;28;20118;-78
2023/12/16 10:22:59;;;;;;;1.55;0.90;;;;;;;2.53;71.70;95235.56;5062682;28;20016;-77
2023/12/16 10:25:25;;;;;;;2.08;0.80;;;;;;;2.46;71.52;95232.22;5063967;28;20101;-78
2023/12/16 10:27:59;;;;;;;1.73;0.90;;;;;;;2.40;71.43;95236.59;5064000;28;20307;-78
2023/12/16 10:30:25;;;;;;;2.63;1.40;;;;;;;2.49;72.40;95246.78;5063587;28;20029;-77
2023/12/16 10:32:50;;;;;;;3.63;1.33;;;;;;;2.59;72.70;95242.53;5063360;28;20031;-78
2023/12/16 10:35:16;;;;;;;2.95;1.20;;;;;;;2.69;72.06;95241.16;5063421;28;20029;-78
2023/12/16 10:37:52;;;;;;;1.90;1.00;;;;;;;2.69;70.92;95243.81;5063476;28;20028;-78
2023/12/16 10:40:18;;;;;;;1.92;1.10;;;;;;;2.67;71.02;95233.50;5063118;28;20017;-78
2023/12/16 10:42:44;;;;;;;2.90;1.20;;;;;;;2.69;70.99;95239.34;5062386;28;20025;-78
2023/12/16 10:45:11;;;;;;;2.33;1.08;;;;;;;2.75;71.27;95240.25;5063284;28;20020;-78
2023/12/16 10:47:37;;;;;;;2.00;0.73;;;;;;;2.89;71.72;95230.25;5063505;28;20255;-78
2023/12/16 10:50:06;;;;;;;1.95;1.00;;;;;;;2.97;69.86;95241.25;5063314;28;20020;-77
2023/12/16 10:52:38;;;;;;;2.35;0.80;;;;;;;3.12;70.44;95243.41;5063354;28;20016;-78
2023/12/16 10:55:06;;;;;;;1.65;0.73;;;;;;;3.30;70.27;95246.94;5063479;28;20143;-77
2023/12/16 10:57:44;;;;;;;1.83;0.82;;;;;;;3.38;68.91;95246.56;5062622;28;20060;-78
2023/12/16 11:00:13;;;;;;;3.03;1.15;;;;;;;3.44;68.23;95250.09;5063347;28;20013;-77
2023/12/16 11:03:07;;;;;;;3.45;1.27;;;;;;;3.48;68.25;95253.84;5063101;28;20037;-78
2023/12/16 11:05:43;;;;;;;4.57;1.00;;;;;;;3.60;68.06;95241.44;5061124;28;20044;-78
2023/12/16 11:08:08;;;;;;;5.38;2.45;;;;;;;3.55;67.09;95249.25;5062937;28;20029;-78
2023/12/16 11:10:35;;;;;;;4.72;1.55;;;;;;;3.46;68.13;95237.47;5061704;28;20075;-77
2023/12/16 11:13:05;;;;;;;3.30;1.67;;;;;;;3.50;68.55;95247.34;5063150;28;20025;-78
2023/12/16 11:15:34;;;;;;;7.38;2.85;;;;;;;3.38;68.92;95243.94;5062844;28;20025;-79
2023/12/16 11:18:14;;;;;;;4.72;2.25;;;;;;;3.37;68.23;95239.69;5063033;28;20055;-78
2023/12/16 11:20:47;;;;;;;5.60;2.40;;;;;;;3.29;67.93;95238.22;5062795;28;20334;-77
2023/12/16 11:23:16;;;;;;;7.55;2.05;;;;;;;3.35;68.32;95239.13;5063052;28;20084;-78
2023/12/16 11:25:42;;;;;;;6.45;3.20;;;;;;;3.41;68.88;95241.59;5062890;28;20088;-78
2023/12/16 11:28:12;;;;;;;4.82;1.90;;;;;;;3.57;69.12;95241.91;5062524;28;20021;-78
2023/12/16 11:30:39;;;;;;;4.43;2.03;;;;;;;3.66;68.00;95243.13;5062656;28;20032;-78
2023/12/16 11:33:05;;;;;;;8.75;3.53;;;;;;;3.65;67.45;95238.13;5062751;28;20021;-78
2023/12/16 11:35:39;;;;;;;11.02;4.50;;;;;;;3.78;68.54;95233.34;5062664;28;20020;-78